createdAt,value
2023-02-02T00:00:15.455Z,96521.98
2023-02-02T00:02:47.594Z,96525.06
2023-02-02T00:05:19.751Z,96521.23
2023-02-02T00:07:51.918Z,96521.38
2023-02-02T00:10:24.015Z,96521.53
2023-02-02T00:12:58.414Z,96522.08
2023-02-02T00:15:33.206Z,96517.00
2023-02-02T00:18:05.663Z,96518.88
2023-02-02T00:20:37.972Z,96519.95
2023-02-02T00:23:09.966Z,96519.42
2023-02-02T00:25:41.816Z,96520.83
2023-02-02T00:28:13.737Z,96522.20
2023-02-02T00:30:46.022Z,96523.92
2023-02-02T00:33:18.866Z,96527.53
2023-02-02T00:35:53.306Z,96527.86
2023-02-02T00:38:25.408Z,96529.76
2023-02-02T00:40:58.086Z,96532.81
2023-02-02T00:43:30.466Z,96536.35
2023-02-02T00:46:03.193Z,96537.77
2023-02-02T00:48:35.966Z,96539.03
2023-02-02T00:51:08.136Z,96545.52
2023-02-02T00:53:41.217Z,96542.63
2023-02-02T00:56:13.191Z,96543.48
2023-02-02T00:58:45.393Z,96544.53
2023-02-02T01:01:21.396Z,96547.95
2023-02-02T01:03:53.968Z,96550.52
2023-02-02T01:06:27.466Z,96549.54
2023-02-02T01:08:59.779Z,96552.92
2023-02-02T01:11:32.312Z,96551.24
2023-02-02T01:14:04.684Z,96546.36
2023-02-02T01:16:36.783Z,96554.68
2023-02-02T01:19:09.416Z,96555.34
2023-02-02T01:21:41.338Z,96556.35
2023-02-02T01:24:13.724Z,96556.88
2023-02-02T01:26:57.878Z,96561.86
2023-02-02T01:29:30.882Z,96567.46
2023-02-02T01:32:06.686Z,96569.04
2023-02-02T01:34:42.128Z,96574.12
2023-02-02T01:37:14.062Z,96577.72
2023-02-02T01:39:46.976Z,96578.73
2023-02-02T01:42:23.817Z,96579.60
2023-02-02T01:45:25.632Z,96579.94
2023-02-02T01:48:00.896Z,96579.95
2023-02-02T01:50:36.627Z,96580.80
2023-02-02T01:53:10.129Z,96581.23
2023-02-02T01:55:43.563Z,96580.19
2023-02-02T01:58:21.053Z,96581.52
2023-02-02T02:00:55.412Z,96581.67
2023-02-02T02:03:30.066Z,96581.34
2023-02-02T02:06:07.587Z,96582.52
2023-02-02T02:08:43.803Z,96585.39
2023-02-02T02:11:16.412Z,96587.92
2023-02-02T02:14:06.083Z,96579.05
2023-02-02T02:16:54.272Z,96586.16
2023-02-02T02:20:14.488Z,96593.84
2023-02-02T02:23:22.116Z,96594.69
2023-02-02T02:26:36.829Z,96594.14
2023-02-02T02:29:43.240Z,96597.25
2023-02-02T02:32:32.807Z,96596.75
2023-02-02T02:35:11.766Z,96602.02
2023-02-02T02:37:53.634Z,96599.33
2023-02-02T02:40:35.977Z,96597.60
2023-02-02T02:43:15.847Z,96598.30
2023-02-02T02:45:48.210Z,96598.60
2023-02-02T02:48:21.248Z,96604.36
2023-02-02T02:50:53.443Z,96603.33
2023-02-02T02:53:26.085Z,96611.14
2023-02-02T02:56:08.358Z,96613.69
2023-02-02T02:58:47.765Z,96618.10
2023-02-02T03:01:30.165Z,96622.02
2023-02-02T03:04:11.825Z,96627.95
2023-02-02T03:06:49.496Z,96627.45
2023-02-02T03:09:29.786Z,96630.52
2023-02-02T03:12:02.500Z,96631.33
2023-02-02T03:14:38.384Z,96631.49
2023-02-02T03:17:10.773Z,96633.52
2023-02-02T03:19:42.943Z,96636.45
2023-02-02T03:22:15.034Z,96641.88
2023-02-02T03:24:47.164Z,96641.35
2023-02-02T03:27:19.366Z,96645.93
2023-02-02T03:29:51.474Z,96646.27
2023-02-02T03:32:24.159Z,96650.53
2023-02-02T03:34:56.226Z,96649.98
2023-02-02T03:37:28.343Z,96648.80
2023-02-02T03:40:00.619Z,96648.44
2023-02-02T03:42:33.384Z,96652.52
2023-02-02T03:45:05.745Z,96653.05
2023-02-02T03:47:38.054Z,96651.85
2023-02-02T03:50:11.678Z,96652.86
2023-02-02T03:52:42.204Z,96657.80
2023-02-02T03:55:15.408Z,96658.02
2023-02-02T03:57:47.574Z,96655.30
2023-02-02T04:00:20.908Z,96655.45
2023-02-02T04:02:51.671Z,96650.50
2023-02-02T04:05:23.959Z,96656.69
2023-02-02T04:07:56.098Z,96656.66
2023-02-02T04:10:28.084Z,96656.98
2023-02-02T04:13:00.889Z,96654.25
2023-02-02T04:15:32.995Z,96654.73
2023-02-02T04:18:05.724Z,96651.34
2023-02-02T04:20:38.068Z,96654.44
2023-02-02T04:23:10.094Z,96656.31
2023-02-02T04:25:50.054Z,96660.01
2023-02-02T04:28:24.105Z,96663.77
2023-02-02T04:30:57.566Z,96662.05
2023-02-02T04:33:30.335Z,96660.67
2023-02-02T04:36:02.324Z,96660.52
2023-02-02T04:38:34.373Z,96665.09
2023-02-02T04:41:14.772Z,96666.59
2023-02-02T04:43:47.446Z,96666.77
2023-02-02T04:46:20.001Z,96669.50
2023-02-02T04:48:53.137Z,96664.21
2023-02-02T04:51:25.243Z,96670.17
2023-02-02T04:53:58.103Z,96673.30
2023-02-02T04:56:30.267Z,96676.05
2023-02-02T04:59:02.646Z,96668.89
2023-02-02T05:01:35.130Z,96676.73
2023-02-02T05:04:07.883Z,96680.64
2023-02-02T05:06:39.785Z,96682.70
2023-02-02T05:09:11.916Z,96682.68
2023-02-02T05:11:44.925Z,96683.55
2023-02-02T05:14:18.705Z,96687.42
2023-02-02T05:16:50.936Z,96685.88
2023-02-02T05:19:23.424Z,96684.02
2023-02-02T05:21:56.092Z,96673.48
2023-02-02T05:24:29.465Z,96680.30
2023-02-02T05:27:01.843Z,96685.61
2023-02-02T05:29:34.309Z,96685.95
2023-02-02T05:32:07.055Z,96678.49
2023-02-02T05:34:39.831Z,96679.98
2023-02-02T05:37:11.901Z,96681.86
2023-02-02T05:39:43.866Z,96681.88
2023-02-02T05:42:15.859Z,96684.25
2023-02-02T05:44:51.937Z,96680.35
2023-02-02T05:47:24.079Z,96684.98
2023-02-02T05:49:57.346Z,96684.80
2023-02-02T05:52:31.113Z,96683.79
2023-02-02T05:55:02.043Z,96681.89
2023-02-02T05:57:34.231Z,96685.98
2023-02-02T06:00:08.588Z,96687.48
2023-02-02T06:02:43.966Z,96684.41
2023-02-02T06:05:16.199Z,96684.76
2023-02-02T06:07:48.235Z,96678.83
2023-02-02T06:10:21.011Z,96678.13
2023-02-02T06:12:53.714Z,96673.21
2023-02-02T06:15:28.156Z,96671.64
2023-02-02T06:18:00.605Z,96673.52
2023-02-02T06:20:33.005Z,96670.80
2023-02-02T06:23:06.310Z,96670.46
2023-02-02T06:25:38.621Z,96669.95
2023-02-02T06:28:11.592Z,96667.55
2023-02-02T06:30:44.295Z,96663.46
2023-02-02T06:33:16.504Z,96659.50
2023-02-02T06:35:49.385Z,96655.73
2023-02-02T06:38:21.565Z,96656.53
2023-02-02T06:40:53.765Z,96651.76
2023-02-02T06:43:26.343Z,96650.86
2023-02-02T06:45:59.085Z,96649.14
2023-02-02T06:48:31.378Z,96647.66
2023-02-02T06:51:03.850Z,96651.37
2023-02-02T06:53:36.196Z,96648.98
2023-02-02T06:56:13.492Z,96646.23
2023-02-02T06:58:45.490Z,96648.09
2023-02-02T07:01:18.015Z,96642.66
2023-02-02T07:03:53.436Z,96641.32
2023-02-02T07:06:27.633Z,96637.07
2023-02-02T07:09:02.908Z,96644.61
2023-02-02T07:11:37.231Z,96644.63
2023-02-02T07:14:12.957Z,96648.40
2023-02-02T07:16:45.568Z,96649.23
2023-02-02T07:19:17.394Z,96643.61
2023-02-02T07:21:49.678Z,96641.03
2023-02-02T07:24:21.670Z,96640.31
2023-02-02T07:26:54.113Z,96634.48
2023-02-02T07:29:26.304Z,96637.88
2023-02-02T07:31:58.695Z,96635.63
2023-02-02T07:34:31.193Z,96634.56
2023-02-02T07:37:03.629Z,96634.05
2023-02-02T07:39:35.566Z,96635.75
2023-02-02T07:42:08.917Z,96633.52
2023-02-02T07:44:39.427Z,96634.00
2023-02-02T07:47:12.295Z,96630.52
2023-02-02T07:49:46.139Z,96629.02
2023-02-02T07:52:18.344Z,96628.88
2023-02-02T07:54:50.704Z,96628.09
2023-02-02T07:57:25.170Z,96628.25
2023-02-02T07:59:57.607Z,96623.83
2023-02-02T08:02:30.308Z,96621.63
2023-02-02T08:05:02.746Z,96618.20
2023-02-02T08:07:37.830Z,96618.38
2023-02-02T08:10:11.608Z,96620.73
2023-02-02T08:12:43.642Z,96618.02
2023-02-02T08:15:17.095Z,96617.02
2023-02-02T08:17:50.286Z,96614.34
2023-02-02T08:20:24.635Z,96619.30
2023-02-02T08:22:58.045Z,96609.45
2023-02-02T08:25:30.706Z,96610.45
2023-02-02T08:28:03.586Z,96617.80
2023-02-02T08:30:36.263Z,96616.96
2023-02-02T08:33:08.411Z,96615.62
2023-02-02T08:35:44.096Z,96606.98
2023-02-02T08:38:16.442Z,96604.27
2023-02-02T08:40:48.427Z,96597.27
2023-02-02T08:43:20.428Z,96604.27
2023-02-02T08:46:02.921Z,96610.59
2023-02-02T08:48:38.718Z,96609.09
2023-02-02T08:51:09.972Z,96605.67
2023-02-02T08:53:42.245Z,96605.91
2023-02-02T08:56:16.701Z,96603.36
2023-02-02T08:58:50.630Z,96602.88
2023-02-02T09:01:24.801Z,96602.86
2023-02-02T09:03:59.267Z,96602.02
2023-02-02T09:06:33.287Z,96598.89
2023-02-02T09:09:06.009Z,96588.65
2023-02-02T09:11:38.812Z,96590.00
2023-02-02T09:14:12.266Z,96596.95
2023-02-02T09:16:46.055Z,96601.19
2023-02-02T09:19:18.626Z,96597.90
2023-02-02T09:21:52.420Z,96609.45
2023-02-02T09:24:24.730Z,96607.58
2023-02-02T09:26:56.930Z,96603.80
2023-02-02T09:29:29.640Z,96607.17
2023-02-02T09:32:01.956Z,96608.52
2023-02-02T09:34:34.367Z,96612.13
2023-02-02T09:37:06.451Z,96607.35
2023-02-02T09:39:38.505Z,96609.77
2023-02-02T09:42:36.898Z,96612.34
2023-02-02T09:45:27.824Z,96615.87
2023-02-02T09:48:07.777Z,96620.11
2023-02-02T09:50:47.593Z,96621.45
2023-02-02T09:53:26.680Z,96621.80
2023-02-02T09:56:03.254Z,96629.82
2023-02-02T09:58:40.915Z,96635.98
2023-02-02T10:01:17.716Z,96638.03
2023-02-02T10:04:03.352Z,96640.66
2023-02-02T10:06:39.631Z,96637.23
2023-02-02T10:09:25.441Z,96638.19
2023-02-02T10:12:02.171Z,96630.44
2023-02-02T10:14:40.161Z,96629.41
2023-02-02T10:17:37.801Z,96629.91
2023-02-02T10:20:35.366Z,96624.23
2023-02-02T10:23:17.277Z,96624.58
2023-02-02T10:26:00.622Z,96625.39
2023-02-02T10:28:52.656Z,96629.45
2023-02-02T10:31:38.313Z,96633.08
2023-02-02T10:34:18.879Z,96638.67
2023-02-02T10:37:03.254Z,96640.36
2023-02-02T10:39:52.964Z,96645.34
2023-02-02T10:42:37.359Z,96651.28
2023-02-02T10:45:12.772Z,96654.43
2023-02-02T10:47:45.991Z,96655.33
2023-02-02T10:50:23.906Z,96655.81
2023-02-02T10:53:02.160Z,96662.61
2023-02-02T10:55:43.666Z,96664.64
2023-02-02T10:58:27.996Z,96666.75
2023-02-02T11:01:03.854Z,96668.96
2023-02-02T11:03:36.316Z,96669.34
2023-02-02T11:06:28.071Z,96673.76
2023-02-02T11:09:01.304Z,96677.52
2023-02-02T11:11:41.742Z,96680.24
2023-02-02T11:14:20.125Z,96682.12
2023-02-02T11:17:04.465Z,96686.35
2023-02-02T11:19:39.627Z,96687.21
2023-02-02T11:22:30.117Z,96690.39
2023-02-02T11:25:04.073Z,96694.24
2023-02-02T11:27:41.314Z,96688.30
2023-02-02T11:30:29.241Z,96692.86
2023-02-02T11:33:01.616Z,96694.20
2023-02-02T11:35:33.816Z,96694.67
2023-02-02T11:38:16.011Z,96700.60
2023-02-02T11:40:54.763Z,96701.63
2023-02-02T11:43:30.794Z,96705.17
2023-02-02T11:46:06.610Z,96701.25
2023-02-02T11:48:40.829Z,96705.42
2023-02-02T11:51:25.969Z,96710.23
2023-02-02T11:54:08.041Z,96718.09
2023-02-02T11:56:41.023Z,96717.53
2023-02-02T11:59:31.804Z,96719.36
2023-02-02T12:02:27.304Z,96726.33
2023-02-02T12:05:34.650Z,96734.07
2023-02-02T12:08:09.424Z,96735.79
2023-02-02T12:10:48.865Z,96741.02
2023-02-02T12:13:31.218Z,96742.53
2023-02-02T12:16:14.938Z,96744.61
2023-02-02T12:19:01.966Z,96751.03
2023-02-02T12:21:45.936Z,96754.77
2023-02-02T12:24:32.824Z,96752.62
2023-02-02T12:27:24.628Z,96761.27
2023-02-02T12:30:15.980Z,96761.64
2023-02-02T12:33:11.495Z,96768.73
2023-02-02T12:36:02.624Z,96772.61
2023-02-02T12:38:55.856Z,96773.11
2023-02-02T12:41:40.065Z,96780.14
2023-02-02T12:44:26.978Z,96785.58
2023-02-02T12:47:10.799Z,96787.40
2023-02-02T12:50:00.325Z,96791.48
2023-02-02T12:52:45.967Z,96797.27
2023-02-02T12:55:37.120Z,96806.84
2023-02-02T12:58:16.399Z,96817.06
2023-02-02T13:01:07.828Z,96818.64
2023-02-02T13:04:01.149Z,96820.89
2023-02-02T13:10:01.113Z,96833.35
2023-02-02T13:12:36.736Z,96842.30
2023-02-02T13:15:14.492Z,96842.81
2023-02-02T13:17:51.880Z,96844.03
2023-02-02T13:20:34.385Z,96852.20
2023-02-02T13:23:15.102Z,96856.11
2023-02-02T13:25:52.755Z,96855.90
2023-02-02T13:28:37.675Z,96856.56
2023-02-02T13:31:18.397Z,96861.31
2023-02-02T13:33:56.617Z,96863.19
2023-02-02T13:36:39.596Z,96866.92
2023-02-02T13:39:19.145Z,96874.27
2023-02-02T13:41:53.927Z,96872.39
2023-02-02T13:44:33.154Z,96878.52
2023-02-02T13:47:13.384Z,96888.05
2023-02-02T13:49:51.571Z,96888.23
2023-02-02T13:52:47.719Z,96898.28
2023-02-02T13:55:58.387Z,96901.66
2023-02-02T13:58:56.942Z,96904.91
2023-02-02T14:01:32.024Z,96914.32
2023-02-02T14:04:05.176Z,96917.20
2023-02-02T14:07:00.226Z,96922.98
2023-02-02T14:09:34.485Z,96922.61
2023-02-02T14:12:09.297Z,96929.27
2023-02-02T14:14:47.900Z,96933.52
2023-02-02T14:17:49.718Z,96940.34
2023-02-02T14:20:45.447Z,96951.60
2023-02-02T14:23:54.390Z,96955.88
2023-02-02T14:26:47.192Z,96960.33
2023-02-02T14:30:01.269Z,96965.42
2023-02-02T14:32:43.297Z,96971.49
2023-02-02T14:35:53.113Z,96973.85
2023-02-02T14:38:55.195Z,96979.48
2023-02-02T14:42:08.859Z,96983.23
2023-02-02T14:45:22.759Z,96987.86
2023-02-02T14:48:00.788Z,96996.77
2023-02-02T14:50:47.546Z,97005.26
2023-02-02T14:53:30.574Z,97006.85
2023-02-02T14:56:06.796Z,97017.92
2023-02-02T14:58:46.344Z,97023.21
2023-02-02T15:01:30.788Z,97030.05
2023-02-02T15:04:27.010Z,97037.38
2023-02-02T15:07:22.171Z,97045.56
2023-02-02T15:09:57.030Z,97054.64
2023-02-02T15:12:37.626Z,97062.42
2023-02-02T15:15:23.141Z,97065.38
2023-02-02T15:18:15.017Z,97069.97
2023-02-02T15:20:52.233Z,97077.54
2023-02-02T15:23:32.833Z,97087.23
2023-02-02T15:26:10.075Z,97087.95
2023-02-02T15:28:48.635Z,97094.58
2023-02-02T15:31:30.357Z,97102.94
2023-02-02T15:34:06.675Z,97119.67
2023-02-02T15:36:44.775Z,97120.52
2023-02-02T15:39:31.796Z,97125.30
2023-02-02T15:42:25.351Z,97133.83
2023-02-02T15:44:57.412Z,97137.23
2023-02-02T15:47:34.665Z,97144.77
2023-02-02T15:50:19.570Z,97148.00
2023-02-02T15:52:53.045Z,97157.55
2023-02-02T15:55:25.294Z,97162.64
2023-02-02T15:57:57.667Z,97165.59
2023-02-02T16:00:33.358Z,97166.59
2023-02-02T16:03:12.357Z,97174.61
2023-02-02T16:05:51.668Z,97184.02
2023-02-02T16:08:29.349Z,97186.41
2023-02-02T16:11:10.743Z,97187.77
2023-02-02T16:13:45.096Z,97194.41
2023-02-02T16:16:27.631Z,97202.42
2023-02-02T16:19:14.579Z,97210.29
2023-02-02T16:21:54.629Z,97217.11
2023-02-02T16:24:30.555Z,97217.28
2023-02-02T16:27:07.818Z,97219.50
2023-02-02T16:29:44.896Z,97217.63
2023-02-02T16:32:37.665Z,97229.39
2023-02-02T16:35:34.574Z,97234.32
2023-02-02T16:38:25.654Z,97242.35
2023-02-02T16:41:11.793Z,97245.77
2023-02-02T16:43:47.436Z,97250.02
2023-02-02T16:46:46.661Z,97253.27
2023-02-02T16:49:25.616Z,97259.58
2023-02-02T16:52:18.177Z,97260.09
2023-02-02T16:54:59.145Z,97266.41
2023-02-02T16:57:36.677Z,97269.16
2023-02-02T17:00:23.139Z,97279.73
2023-02-02T17:03:02.227Z,97278.19
2023-02-02T17:05:51.245Z,97278.18
2023-02-02T17:08:34.854Z,97286.02
2023-02-02T17:11:26.969Z,97296.94
2023-02-02T17:14:21.475Z,97310.40
2023-02-02T17:16:53.627Z,97318.92
2023-02-02T17:19:30.447Z,97318.08
2023-02-02T17:22:07.546Z,97325.73
2023-02-02T17:24:43.786Z,97328.46
2023-02-02T17:27:19.785Z,97333.06
2023-02-02T17:29:51.897Z,97337.64
2023-02-02T17:32:25.722Z,97341.21
2023-02-02T17:34:59.506Z,97351.79
2023-02-02T17:37:34.063Z,97360.13
2023-02-02T17:40:11.905Z,97365.06
2023-02-02T17:42:47.075Z,97372.89
2023-02-02T17:45:24.078Z,97375.80
2023-02-02T17:47:58.784Z,97385.34
2023-02-02T17:50:33.953Z,97388.76
2023-02-02T17:53:08.595Z,97393.87
2023-02-02T17:55:46.600Z,97405.47
2023-02-02T17:58:21.881Z,97408.20
2023-02-02T18:00:59.217Z,97413.14
2023-02-02T18:03:35.096Z,97416.20
2023-02-02T18:06:09.966Z,97422.85
2023-02-02T18:08:43.248Z,97430.35
2023-02-02T18:11:19.807Z,97432.90
2023-02-02T18:13:58.847Z,97435.80
2023-02-02T18:16:31.326Z,97438.85
2023-02-02T18:19:05.375Z,97440.55
2023-02-02T18:21:43.353Z,97448.20
2023-02-02T18:24:19.094Z,97453.30
2023-02-02T18:26:52.190Z,97455.17
2023-02-02T18:29:26.987Z,97460.96
2023-02-02T18:32:01.769Z,97467.61
2023-02-02T18:34:34.843Z,97469.48
2023-02-02T18:37:09.964Z,97479.04
2023-02-02T18:39:43.153Z,97481.41
2023-02-02T18:42:14.924Z,97487.71
2023-02-02T18:44:48.056Z,97489.41
2023-02-02T18:47:20.191Z,97495.38
2023-02-02T18:49:52.496Z,97501.68
2023-02-02T18:52:25.955Z,97499.80
2023-02-02T18:55:00.481Z,97506.95
2023-02-02T18:57:34.095Z,97511.72
2023-02-02T19:00:08.245Z,97518.88
2023-02-02T19:02:40.345Z,97523.81
2023-02-02T19:05:30.022Z,97526.37
2023-02-02T19:08:04.243Z,97534.89
2023-02-02T19:10:36.087Z,97540.52
2023-02-02T19:13:18.496Z,97544.95
2023-02-02T19:15:52.608Z,97553.80
2023-02-02T19:18:28.465Z,97564.20
2023-02-02T19:21:00.988Z,97570.17
2023-02-02T19:23:36.307Z,97577.31
2023-02-02T19:26:19.092Z,97583.77
2023-02-02T19:28:56.283Z,97588.04
2023-02-02T19:31:29.696Z,97593.47
2023-02-02T19:34:04.167Z,97597.21
2023-02-02T19:36:42.426Z,97593.80
2023-02-02T19:39:19.991Z,97591.05
2023-02-02T19:41:56.137Z,97586.63
2023-02-02T19:44:32.261Z,97586.12
2023-02-02T19:47:05.206Z,97590.67
2023-02-02T19:49:38.610Z,97597.66
2023-02-02T19:52:30.827Z,97603.41
2023-02-02T19:55:22.736Z,97609.02
2023-02-02T19:58:00.297Z,97613.61
2023-02-02T20:00:34.903Z,97615.13
2023-02-02T20:03:12.396Z,97623.13
2023-02-02T20:05:47.310Z,97629.06
2023-02-02T20:08:35.639Z,97641.29
2023-02-02T20:11:32.426Z,97654.04
2023-02-02T20:14:23.345Z,97658.27
2023-02-02T20:16:59.784Z,97666.09
2023-02-02T20:19:38.456Z,97661.64
2023-02-02T20:22:26.099Z,97669.79
2023-02-02T20:25:02.333Z,97675.75
2023-02-02T20:27:36.731Z,97683.71
2023-02-02T20:30:23.806Z,97682.52
2023-02-02T20:32:58.296Z,97686.75
2023-02-02T20:35:43.088Z,97692.21
2023-02-02T20:38:22.834Z,97696.98
2023-02-02T20:40:56.378Z,97703.24
2023-02-02T20:43:28.316Z,97707.05
2023-02-02T20:46:01.286Z,97706.17
2023-02-02T20:48:34.124Z,97715.35
2023-02-02T20:51:08.786Z,97720.96
2023-02-02T20:53:41.356Z,97723.84
2023-02-02T20:56:14.768Z,97729.27
2023-02-02T20:58:48.936Z,97731.17
2023-02-02T21:01:23.818Z,97732.23
2023-02-02T21:03:55.907Z,97732.01
2023-02-02T21:06:28.863Z,97730.33
2023-02-02T21:09:01.079Z,97735.61
2023-02-02T21:11:33.495Z,97740.48
2023-02-02T21:14:05.828Z,97740.52
2023-02-02T21:16:38.574Z,97740.98
2023-02-02T21:19:11.198Z,97741.55
2023-02-02T21:21:43.474Z,97746.95
2023-02-02T21:24:15.558Z,97753.63
2023-02-02T21:26:51.269Z,97752.08
2023-02-02T21:29:26.099Z,97758.00
2023-02-02T21:32:01.159Z,97762.92
2023-02-02T21:34:33.995Z,97766.98
2023-02-02T21:37:13.948Z,97776.71
2023-02-02T21:39:51.526Z,97780.59
2023-02-02T21:42:24.947Z,97778.05
2023-02-02T21:44:58.401Z,97787.42
2023-02-02T21:47:35.629Z,97792.52
2023-02-02T21:50:19.032Z,97794.58
2023-02-02T21:52:51.215Z,97794.23
2023-02-02T21:55:37.011Z,97796.77
2023-02-02T21:58:20.760Z,97801.92
2023-02-02T22:00:53.656Z,97807.86
2023-02-02T22:03:39.035Z,97809.84
2023-02-02T22:06:31.457Z,97811.49
2023-02-02T22:09:15.269Z,97815.88
2023-02-02T22:11:51.597Z,97816.28
2023-02-02T22:14:27.615Z,97814.03
2023-02-02T22:17:02.734Z,97815.19
2023-02-02T22:19:39.427Z,97816.52
2023-02-02T22:22:22.151Z,97822.96
2023-02-02T22:25:01.146Z,97835.05
2023-02-02T22:27:43.168Z,97839.81
2023-02-02T22:30:25.415Z,97849.50
2023-02-02T22:32:58.558Z,97850.01
2023-02-02T22:35:31.524Z,97858.70
2023-02-02T22:38:03.912Z,97858.98
2023-02-02T22:40:36.252Z,97861.02
2023-02-02T22:43:10.515Z,97858.45
2023-02-02T22:45:42.666Z,97860.64
2023-02-02T22:48:15.502Z,97866.21
2023-02-02T22:50:48.917Z,97880.48
2023-02-02T22:53:21.085Z,97881.48
2023-02-02T22:55:56.923Z,97885.15
2023-02-02T22:58:29.315Z,97885.30
2023-02-02T23:01:01.304Z,97890.59
2023-02-02T23:03:33.393Z,97894.48
2023-02-02T23:06:05.877Z,97905.73
2023-02-02T23:08:38.022Z,97904.17
2023-02-02T23:11:10.426Z,97907.92
2023-02-02T23:13:42.504Z,97912.13
2023-02-02T23:16:14.665Z,97917.11
2023-02-02T23:18:46.937Z,97917.94
2023-02-02T23:21:19.186Z,97921.45
2023-02-02T23:23:51.348Z,97926.17
2023-02-02T23:26:23.309Z,97931.42
2023-02-02T23:28:55.496Z,97931.64
2023-02-02T23:31:27.831Z,97940.27
2023-02-02T23:34:00.021Z,97944.52
2023-02-02T23:36:32.641Z,97945.25
2023-02-02T23:39:04.558Z,97947.23
2023-02-02T23:41:36.688Z,97941.65
2023-02-02T23:44:09.046Z,97941.08
2023-02-02T23:46:42.415Z,97942.15
2023-02-02T23:49:15.000Z,97943.36
2023-02-02T23:51:47.765Z,97950.14
2023-02-02T23:54:19.929Z,97947.69
2023-02-02T23:56:53.167Z,97949.20
2023-02-02T23:59:25.304Z,97951.10
